sensor_id;sensor_type;location;lat;lon;timestamp;P1;durP1;ratioP1;P2;durP2;ratioP2
24557;SDS011;12726;49.148;8.582;2023-02-15T00:01:04;44.15;;;21.73;;
24557;SDS011;12726;49.148;8.582;2023-02-15T00:03:50;46.53;;;22.45;;
24557;SDS011;12726;49.148;8.582;2023-02-15T00:06:36;48.22;;;21.85;;
24557;SDS011;12726;49.148;8.582;2023-02-15T00:09:21;42.88;;;21.38;;
24557;SDS011;12726;49.148;8.582;2023-02-15T00:12:08;44.33;;;20.60;;
24557;SDS011;12726;49.148;8.582;2023-02-15T00:14:54;44.97;;;22.13;;
24557;SDS011;12726;49.148;8.582;2023-02-15T00:17:39;45.25;;;21.65;;
24557;SDS011;12726;49.148;8.582;2023-02-15T00:20:24;49.03;;;22.38;;
24557;SDS011;12726;49.148;8.582;2023-02-15T00:23:10;53.88;;;22.63;;
24557;SDS011;12726;49.148;8.582;2023-02-15T00:26:02;54.47;;;23.20;;
24557;SDS011;12726;49.148;8.582;2023-02-15T00:28:50;46.75;;;20.73;;
24557;SDS011;12726;49.148;8.582;2023-02-15T00:31:35;46.33;;;21.20;;
24557;SDS011;12726;49.148;8.582;2023-02-15T00:34:21;41.47;;;20.63;;
24557;SDS011;12726;49.148;8.582;2023-02-15T00:37:08;44.17;;;21.48;;
24557;SDS011;12726;49.148;8.582;2023-02-15T00:39:53;45.78;;;21.35;;
24557;SDS011;12726;49.148;8.582;2023-02-15T00:42:38;45.33;;;22.42;;
24557;SDS011;12726;49.148;8.582;2023-02-15T00:45:25;48.85;;;22.40;;
24557;SDS011;12726;49.148;8.582;2023-02-15T00:48:10;50.70;;;21.67;;
24557;SDS011;12726;49.148;8.582;2023-02-15T00:50:56;51.80;;;22.52;;
24557;SDS011;12726;49.148;8.582;2023-02-15T00:53:43;44.97;;;21.23;;
24557;SDS011;12726;49.148;8.582;2023-02-15T00:56:29;51.47;;;23.60;;
24557;SDS011;12726;49.148;8.582;2023-02-15T00:59:14;47.80;;;23.10;;
24557;SDS011;12726;49.148;8.582;2023-02-15T01:02:01;48.33;;;22.92;;
24557;SDS011;12726;49.148;8.582;2023-02-15T01:04:46;43.28;;;21.23;;
24557;SDS011;12726;49.148;8.582;2023-02-15T01:07:31;47.75;;;20.25;;
24557;SDS011;12726;49.148;8.582;2023-02-15T01:10:17;47.22;;;22.02;;
24557;SDS011;12726;49.148;8.582;2023-02-15T01:13:02;43.80;;;21.00;;
24557;SDS011;12726;49.148;8.582;2023-02-15T01:15:52;50.00;;;21.98;;
24557;SDS011;12726;49.148;8.582;2023-02-15T01:18:39;45.92;;;21.70;;
24557;SDS011;12726;49.148;8.582;2023-02-15T01:21:24;49.72;;;22.05;;
24557;SDS011;12726;49.148;8.582;2023-02-15T01:24:11;46.00;;;21.30;;
24557;SDS011;12726;49.148;8.582;2023-02-15T01:26:57;43.95;;;21.00;;
24557;SDS011;12726;49.148;8.582;2023-02-15T01:29:43;45.88;;;20.13;;
24557;SDS011;12726;49.148;8.582;2023-02-15T01:32:29;41.35;;;20.23;;
24557;SDS011;12726;49.148;8.582;2023-02-15T01:35:15;40.03;;;20.27;;
24557;SDS011;12726;49.148;8.582;2023-02-15T01:38:01;39.95;;;19.80;;
24557;SDS011;12726;49.148;8.582;2023-02-15T01:40:46;42.33;;;19.55;;
24557;SDS011;12726;49.148;8.582;2023-02-15T01:43:38;41.15;;;19.48;;
24557;SDS011;12726;49.148;8.582;2023-02-15T01:46:26;44.13;;;20.60;;
24557;SDS011;12726;49.148;8.582;2023-02-15T01:49:16;43.42;;;20.25;;
24557;SDS011;12726;49.148;8.582;2023-02-15T01:52:06;40.33;;;19.05;;
24557;SDS011;12726;49.148;8.582;2023-02-15T01:54:52;41.58;;;19.77;;
24557;SDS011;12726;49.148;8.582;2023-02-15T01:57:38;36.72;;;18.98;;
24557;SDS011;12726;49.148;8.582;2023-02-15T02:00:24;43.05;;;19.08;;
24557;SDS011;12726;49.148;8.582;2023-02-15T02:03:09;37.85;;;18.83;;
24557;SDS011;12726;49.148;8.582;2023-02-15T02:05:55;40.75;;;19.65;;
24557;SDS011;12726;49.148;8.582;2023-02-15T02:08:42;35.80;;;18.45;;
24557;SDS011;12726;49.148;8.582;2023-02-15T02:11:28;40.70;;;18.27;;
24557;SDS011;12726;49.148;8.582;2023-02-15T02:14:13;37.75;;;18.20;;
24557;SDS011;12726;49.148;8.582;2023-02-15T02:17:04;37.90;;;17.48;;
24557;SDS011;12726;49.148;8.582;2023-02-15T02:20:10;32.35;;;16.15;;
24557;SDS011;12726;49.148;8.582;2023-02-15T02:23:08;35.80;;;17.92;;
24557;SDS011;12726;49.148;8.582;2023-02-15T02:32:58;34.72;;;17.55;;
24557;SDS011;12726;49.148;8.582;2023-02-15T02:36:06;36.50;;;18.48;;
24557;SDS011;12726;49.148;8.582;2023-02-15T02:39:06;31.98;;;16.25;;
24557;SDS011;12726;49.148;8.582;2023-02-15T02:41:59;32.90;;;16.58;;
24557;SDS011;12726;49.148;8.582;2023-02-15T02:47:40;36.00;;;16.88;;
24557;SDS011;12726;49.148;8.582;2023-02-15T02:50:31;32.97;;;17.85;;
24557;SDS011;12726;49.148;8.582;2023-02-15T02:53:16;34.83;;;17.20;;
24557;SDS011;12726;49.148;8.582;2023-02-15T02:56:03;35.15;;;17.55;;
24557;SDS011;12726;49.148;8.582;2023-02-15T02:58:52;36.10;;;17.25;;
24557;SDS011;12726;49.148;8.582;2023-02-15T03:01:42;34.75;;;16.58;;
24557;SDS011;12726;49.148;8.582;2023-02-15T03:04:32;35.13;;;17.55;;
24557;SDS011;12726;49.148;8.582;2023-02-15T03:07:21;39.33;;;17.05;;
24557;SDS011;12726;49.148;8.582;2023-02-15T03:10:09;39.03;;;17.85;;
24557;SDS011;12726;49.148;8.582;2023-02-15T03:12:55;31.55;;;17.38;;
24557;SDS011;12726;49.148;8.582;2023-02-15T03:15:41;36.72;;;16.85;;
24557;SDS011;12726;49.148;8.582;2023-02-15T03:18:47;29.42;;;15.35;;
24557;SDS011;12726;49.148;8.582;2023-02-15T03:21:42;30.98;;;16.77;;
24557;SDS011;12726;49.148;8.582;2023-02-15T03:24:42;31.55;;;16.38;;
24557;SDS011;12726;49.148;8.582;2023-02-15T03:27:32;34.85;;;16.63;;
24557;SDS011;12726;49.148;8.582;2023-02-15T03:30:22;29.67;;;15.48;;
24557;SDS011;12726;49.148;8.582;2023-02-15T03:33:10;29.85;;;15.85;;
24557;SDS011;12726;49.148;8.582;2023-02-15T03:35:59;33.72;;;17.02;;
24557;SDS011;12726;49.148;8.582;2023-02-15T03:38:50;32.20;;;16.33;;
24557;SDS011;12726;49.148;8.582;2023-02-15T03:41:46;32.30;;;16.08;;
24557;SDS011;12726;49.148;8.582;2023-02-15T03:44:41;32.55;;;15.95;;
24557;SDS011;12726;49.148;8.582;2023-02-15T03:47:35;32.17;;;17.35;;
24557;SDS011;12726;49.148;8.582;2023-02-15T03:50:24;28.10;;;15.90;;
24557;SDS011;12726;49.148;8.582;2023-02-15T03:53:30;33.72;;;16.02;;
24557;SDS011;12726;49.148;8.582;2023-02-15T03:56:16;29.63;;;15.07;;
24557;SDS011;12726;49.148;8.582;2023-02-15T03:59:03;30.45;;;15.38;;
24557;SDS011;12726;49.148;8.582;2023-02-15T04:02:08;33.80;;;15.90;;
24557;SDS011;12726;49.148;8.582;2023-02-15T04:05:05;29.38;;;15.35;;
24557;SDS011;12726;49.148;8.582;2023-02-15T04:07:51;33.83;;;16.77;;
24557;SDS011;12726;49.148;8.582;2023-02-15T04:10:36;34.30;;;16.48;;
24557;SDS011;12726;49.148;8.582;2023-02-15T04:13:36;31.20;;;15.13;;
24557;SDS011;12726;49.148;8.582;2023-02-15T04:16:22;31.48;;;16.63;;
24557;SDS011;12726;49.148;8.582;2023-02-15T04:19:07;30.08;;;15.73;;
24557;SDS011;12726;49.148;8.582;2023-02-15T04:22:10;35.15;;;15.88;;
24557;SDS011;12726;49.148;8.582;2023-02-15T04:25:13;29.23;;;15.13;;
24557;SDS011;12726;49.148;8.582;2023-02-15T04:27:58;29.10;;;14.98;;
24557;SDS011;12726;49.148;8.582;2023-02-15T04:30:43;29.60;;;15.57;;
24557;SDS011;12726;49.148;8.582;2023-02-15T04:33:30;41.63;;;16.88;;
24557;SDS011;12726;49.148;8.582;2023-02-15T04:36:15;30.70;;;16.88;;
24557;SDS011;12726;49.148;8.582;2023-02-15T04:39:01;35.15;;;15.60;;
24557;SDS011;12726;49.148;8.582;2023-02-15T04:41:46;32.75;;;16.33;;
24557;SDS011;12726;49.148;8.582;2023-02-15T04:44:32;34.13;;;16.55;;
24557;SDS011;12726;49.148;8.582;2023-02-15T04:47:18;31.73;;;14.95;;
24557;SDS011;12726;49.148;8.582;2023-02-15T04:50:05;30.33;;;15.75;;
24557;SDS011;12726;49.148;8.582;2023-02-15T04:52:51;37.38;;;16.15;;
24557;SDS011;12726;49.148;8.582;2023-02-15T04:55:36;31.02;;;15.68;;
24557;SDS011;12726;49.148;8.582;2023-02-15T04:58:21;36.50;;;16.00;;
24557;SDS011;12726;49.148;8.582;2023-02-15T05:01:07;29.98;;;16.08;;
24557;SDS011;12726;49.148;8.582;2023-02-15T05:03:53;31.85;;;15.85;;
24557;SDS011;12726;49.148;8.582;2023-02-15T05:06:39;30.58;;;15.15;;
24557;SDS011;12726;49.148;8.582;2023-02-15T05:09:24;32.33;;;15.10;;
24557;SDS011;12726;49.148;8.582;2023-02-15T05:12:10;29.73;;;14.88;;
24557;SDS011;12726;49.148;8.582;2023-02-15T05:14:55;27.55;;;14.90;;
24557;SDS011;12726;49.148;8.582;2023-02-15T05:17:41;29.30;;;15.57;;
24557;SDS011;12726;49.148;8.582;2023-02-15T05:20:26;34.03;;;16.20;;
24557;SDS011;12726;49.148;8.582;2023-02-15T05:23:13;28.90;;;14.82;;
24557;SDS011;12726;49.148;8.582;2023-02-15T05:25:59;33.22;;;16.02;;
24557;SDS011;12726;49.148;8.582;2023-02-15T05:29:02;28.65;;;14.95;;
24557;SDS011;12726;49.148;8.582;2023-02-15T05:31:48;34.50;;;15.23;;
24557;SDS011;12726;49.148;8.582;2023-02-15T05:34:33;28.77;;;15.70;;
24557;SDS011;12726;49.148;8.582;2023-02-15T05:37:18;30.48;;;15.73;;
24557;SDS011;12726;49.148;8.582;2023-02-15T05:40:06;29.50;;;14.98;;
24557;SDS011;12726;49.148;8.582;2023-02-15T05:42:52;27.73;;;14.43;;
24557;SDS011;12726;49.148;8.582;2023-02-15T05:45:37;27.10;;;14.27;;
24557;SDS011;12726;49.148;8.582;2023-02-15T05:48:24;25.40;;;13.02;;
24557;SDS011;12726;49.148;8.582;2023-02-15T05:51:12;29.42;;;13.02;;
24557;SDS011;12726;49.148;8.582;2023-02-15T05:53:59;32.65;;;15.52;;
24557;SDS011;12726;49.148;8.582;2023-02-15T05:56:46;27.85;;;14.43;;
24557;SDS011;12726;49.148;8.582;2023-02-15T05:59:31;31.67;;;16.10;;
24557;SDS011;12726;49.148;8.582;2023-02-15T06:02:17;31.35;;;16.23;;
24557;SDS011;12726;49.148;8.582;2023-02-15T06:05:02;26.30;;;14.00;;
24557;SDS011;12726;49.148;8.582;2023-02-15T06:07:48;30.27;;;15.98;;
24557;SDS011;12726;49.148;8.582;2023-02-15T06:10:34;32.85;;;14.65;;
24557;SDS011;12726;49.148;8.582;2023-02-15T06:13:21;26.70;;;14.60;;
24557;SDS011;12726;49.148;8.582;2023-02-15T06:16:06;31.50;;;15.27;;
24557;SDS011;12726;49.148;8.582;2023-02-15T06:18:51;29.27;;;15.18;;
24557;SDS011;12726;49.148;8.582;2023-02-15T06:21:36;29.50;;;14.93;;
24557;SDS011;12726;49.148;8.582;2023-02-15T06:24:22;29.23;;;14.13;;
24557;SDS011;12726;49.148;8.582;2023-02-15T06:27:07;26.95;;;13.50;;
24557;SDS011;12726;49.148;8.582;2023-02-15T06:29:54;29.15;;;14.55;;
24557;SDS011;12726;49.148;8.582;2023-02-15T06:32:39;27.50;;;15.07;;
24557;SDS011;12726;49.148;8.582;2023-02-15T06:35:25;34.25;;;14.88;;
24557;SDS011;12726;49.148;8.582;2023-02-15T06:38:10;34.83;;;18.50;;
24557;SDS011;12726;49.148;8.582;2023-02-15T06:40:56;37.50;;;17.60;;
24557;SDS011;12726;49.148;8.582;2023-02-15T06:43:41;30.48;;;14.65;;
24557;SDS011;12726;49.148;8.582;2023-02-15T06:46:28;24.45;;;13.38;;
24557;SDS011;12726;49.148;8.582;2023-02-15T06:49:13;25.85;;;13.38;;
24557;SDS011;12726;49.148;8.582;2023-02-15T06:51:58;23.55;;;12.95;;
24557;SDS011;12726;49.148;8.582;2023-02-15T06:54:43;24.27;;;13.60;;
24557;SDS011;12726;49.148;8.582;2023-02-15T06:57:29;22.95;;;12.60;;
24557;SDS011;12726;49.148;8.582;2023-02-15T07:00:22;26.45;;;15.07;;
24557;SDS011;12726;49.148;8.582;2023-02-15T07:03:09;33.63;;;15.52;;
24557;SDS011;12726;49.148;8.582;2023-02-15T07:05:58;26.05;;;13.18;;
24557;SDS011;12726;49.148;8.582;2023-02-15T07:08:45;32.33;;;15.55;;
24557;SDS011;12726;49.148;8.582;2023-02-15T07:11:30;30.00;;;15.45;;
24557;SDS011;12726;49.148;8.582;2023-02-15T07:17:18;40.10;;;17.48;;
24557;SDS011;12726;49.148;8.582;2023-02-15T07:20:06;40.88;;;17.15;;
24557;SDS011;12726;49.148;8.582;2023-02-15T07:22:53;26.75;;;13.32;;
24557;SDS011;12726;49.148;8.582;2023-02-15T07:25:38;25.23;;;12.98;;
24557;SDS011;12726;49.148;8.582;2023-02-15T07:28:23;27.45;;;14.18;;
24557;SDS011;12726;49.148;8.582;2023-02-15T07:31:09;24.17;;;13.77;;
24557;SDS011;12726;49.148;8.582;2023-02-15T07:33:54;26.92;;;14.40;;
24557;SDS011;12726;49.148;8.582;2023-02-15T07:36:41;26.50;;;14.55;;
24557;SDS011;12726;49.148;8.582;2023-02-15T07:39:27;28.63;;;15.25;;
24557;SDS011;12726;49.148;8.582;2023-02-15T07:42:13;25.30;;;13.55;;
24557;SDS011;12726;49.148;8.582;2023-02-15T07:44:58;24.63;;;13.48;;
24557;SDS011;12726;49.148;8.582;2023-02-15T07:47:43;22.08;;;12.88;;
24557;SDS011;12726;49.148;8.582;2023-02-15T07:50:29;28.10;;;14.07;;
24557;SDS011;12726;49.148;8.582;2023-02-15T07:53:16;25.70;;;13.43;;
24557;SDS011;12726;49.148;8.582;2023-02-15T07:56:02;28.55;;;14.38;;
24557;SDS011;12726;49.148;8.582;2023-02-15T07:58:49;23.88;;;13.48;;
24557;SDS011;12726;49.148;8.582;2023-02-15T08:01:39;46.22;;;20.48;;
24557;SDS011;12726;49.148;8.582;2023-02-15T08:04:24;27.08;;;14.63;;
24557;SDS011;12726;49.148;8.582;2023-02-15T08:07:10;29.05;;;15.82;;
24557;SDS011;12726;49.148;8.582;2023-02-15T08:09:56;34.28;;;18.13;;
24557;SDS011;12726;49.148;8.582;2023-02-15T08:12:42;47.22;;;19.73;;
24557;SDS011;12726;49.148;8.582;2023-02-15T08:15:27;41.20;;;18.25;;
24557;SDS011;12726;49.148;8.582;2023-02-15T08:18:13;50.08;;;21.23;;
24557;SDS011;12726;49.148;8.582;2023-02-15T08:20:58;36.05;;;18.30;;
24557;SDS011;12726;49.148;8.582;2023-02-15T08:23:49;32.17;;;15.85;;
24557;SDS011;12726;49.148;8.582;2023-02-15T08:26:36;29.10;;;16.00;;
24557;SDS011;12726;49.148;8.582;2023-02-15T08:29:23;26.55;;;15.43;;
24557;SDS011;12726;49.148;8.582;2023-02-15T08:32:11;32.08;;;16.38;;
24557;SDS011;12726;49.148;8.582;2023-02-15T08:34:57;33.88;;;17.15;;
24557;SDS011;12726;49.148;8.582;2023-02-15T08:37:42;31.55;;;16.33;;
24557;SDS011;12726;49.148;8.582;2023-02-15T08:40:29;30.05;;;16.08;;
24557;SDS011;12726;49.148;8.582;2023-02-15T08:43:16;30.42;;;16.17;;
24557;SDS011;12726;49.148;8.582;2023-02-15T08:46:01;28.77;;;14.77;;
24557;SDS011;12726;49.148;8.582;2023-02-15T08:48:47;26.92;;;14.18;;
24557;SDS011;12726;49.148;8.582;2023-02-15T08:51:32;25.65;;;14.13;;
24557;SDS011;12726;49.148;8.582;2023-02-15T08:54:19;26.45;;;14.30;;
24557;SDS011;12726;49.148;8.582;2023-02-15T08:57:05;28.42;;;14.98;;
24557;SDS011;12726;49.148;8.582;2023-02-15T08:59:51;29.20;;;15.25;;
24557;SDS011;12726;49.148;8.582;2023-02-15T09:02:38;26.83;;;14.18;;
24557;SDS011;12726;49.148;8.582;2023-02-15T09:05:24;25.35;;;13.88;;
24557;SDS011;12726;49.148;8.582;2023-02-15T09:08:09;24.23;;;14.13;;
24557;SDS011;12726;49.148;8.582;2023-02-15T09:11:03;23.20;;;12.68;;
24557;SDS011;12726;49.148;8.582;2023-02-15T09:13:51;27.10;;;13.65;;
24557;SDS011;12726;49.148;8.582;2023-02-15T09:16:39;24.45;;;13.93;;
24557;SDS011;12726;49.148;8.582;2023-02-15T09:19:26;26.60;;;13.13;;
24557;SDS011;12726;49.148;8.582;2023-02-15T09:22:11;21.70;;;12.88;;
24557;SDS011;12726;49.148;8.582;2023-02-15T09:24:56;23.75;;;13.18;;
24557;SDS011;12726;49.148;8.582;2023-02-15T09:27:41;22.73;;;12.80;;
24557;SDS011;12726;49.148;8.582;2023-02-15T09:30:27;26.10;;;13.48;;
24557;SDS011;12726;49.148;8.582;2023-02-15T09:33:13;22.83;;;12.35;;
24557;SDS011;12726;49.148;8.582;2023-02-15T09:35:59;21.80;;;12.95;;
24557;SDS011;12726;49.148;8.582;2023-02-15T09:38:44;22.65;;;12.60;;
24557;SDS011;12726;49.148;8.582;2023-02-15T09:41:35;23.35;;;12.60;;
24557;SDS011;12726;49.148;8.582;2023-02-15T09:44:32;21.02;;;12.88;;
24557;SDS011;12726;49.148;8.582;2023-02-15T09:47:41;21.48;;;13.27;;
24557;SDS011;12726;49.148;8.582;2023-02-15T09:50:39;30.63;;;16.02;;
24557;SDS011;12726;49.148;8.582;2023-02-15T09:53:41;26.90;;;13.82;;
24557;SDS011;12726;49.148;8.582;2023-02-15T09:56:47;25.48;;;13.88;;
24557;SDS011;12726;49.148;8.582;2023-02-15T09:59:38;28.05;;;14.73;;
24557;SDS011;12726;49.148;8.582;2023-02-15T10:02:34;30.08;;;16.20;;
24557;SDS011;12726;49.148;8.582;2023-02-15T10:05:31;29.13;;;14.80;;
24557;SDS011;12726;49.148;8.582;2023-02-15T10:08:35;28.33;;;15.70;;
24557;SDS011;12726;49.148;8.582;2023-02-15T10:11:35;26.75;;;15.68;;
24557;SDS011;12726;49.148;8.582;2023-02-15T10:14:31;26.45;;;14.85;;
24557;SDS011;12726;49.148;8.582;2023-02-15T10:17:34;33.42;;;17.38;;
24557;SDS011;12726;49.148;8.582;2023-02-15T10:20:31;30.48;;;18.00;;
24557;SDS011;12726;49.148;8.582;2023-02-15T10:23:28;27.63;;;15.70;;
24557;SDS011;12726;49.148;8.582;2023-02-15T10:26:25;28.33;;;16.25;;
24557;SDS011;12726;49.148;8.582;2023-02-15T10:29:24;24.42;;;13.85;;
24557;SDS011;12726;49.148;8.582;2023-02-15T10:32:20;24.35;;;13.88;;
24557;SDS011;12726;49.148;8.582;2023-02-15T10:35:10;24.20;;;14.75;;
24557;SDS011;12726;49.148;8.582;2023-02-15T10:38:09;22.83;;;15.02;;
24557;SDS011;12726;49.148;8.582;2023-02-15T10:41:06;27.00;;;14.80;;
24557;SDS011;12726;49.148;8.582;2023-02-15T10:44:05;26.40;;;14.48;;
24557;SDS011;12726;49.148;8.582;2023-02-15T10:47:08;25.90;;;14.63;;
24557;SDS011;12726;49.148;8.582;2023-02-15T10:50:11;27.35;;;15.52;;
24557;SDS011;12726;49.148;8.582;2023-02-15T10:53:08;22.17;;;12.85;;
24557;SDS011;12726;49.148;8.582;2023-02-15T10:56:07;23.70;;;14.10;;
24557;SDS011;12726;49.148;8.582;2023-02-15T10:59:06;25.40;;;15.07;;
24557;SDS011;12726;49.148;8.582;2023-02-15T11:02:04;26.13;;;14.88;;
24557;SDS011;12726;49.148;8.582;2023-02-15T11:05:02;25.60;;;15.10;;
24557;SDS011;12726;49.148;8.582;2023-02-15T11:08:05;29.08;;;14.50;;
24557;SDS011;12726;49.148;8.582;2023-02-15T11:10:57;28.65;;;15.43;;
24557;SDS011;12726;49.148;8.582;2023-02-15T11:16:50;25.40;;;14.98;;
24557;SDS011;12726;49.148;8.582;2023-02-15T11:19:40;24.40;;;13.52;;
24557;SDS011;12726;49.148;8.582;2023-02-15T11:22:30;25.63;;;14.63;;
24557;SDS011;12726;49.148;8.582;2023-02-15T11:25:19;24.92;;;14.70;;
24557;SDS011;12726;49.148;8.582;2023-02-15T11:31:15;24.58;;;14.52;;
24557;SDS011;12726;49.148;8.582;2023-02-15T11:34:04;25.27;;;15.02;;
24557;SDS011;12726;49.148;8.582;2023-02-15T11:36:58;25.17;;;15.20;;
24557;SDS011;12726;49.148;8.582;2023-02-15T11:39:49;25.58;;;14.60;;
24557;SDS011;12726;49.148;8.582;2023-02-15T11:42:38;22.02;;;13.73;;
24557;SDS011;12726;49.148;8.582;2023-02-15T11:45:26;24.65;;;13.65;;
24557;SDS011;12726;49.148;8.582;2023-02-15T11:48:14;24.95;;;13.30;;
24557;SDS011;12726;49.148;8.582;2023-02-15T11:51:01;24.42;;;14.98;;
24557;SDS011;12726;49.148;8.582;2023-02-15T11:53:47;23.02;;;14.00;;
24557;SDS011;12726;49.148;8.582;2023-02-15T11:56:33;25.63;;;13.23;;
24557;SDS011;12726;49.148;8.582;2023-02-15T11:59:21;24.70;;;13.15;;
24557;SDS011;12726;49.148;8.582;2023-02-15T12:02:15;25.27;;;13.85;;
24557;SDS011;12726;49.148;8.582;2023-02-15T12:05:05;25.55;;;14.15;;
24557;SDS011;12726;49.148;8.582;2023-02-15T12:07:55;26.73;;;14.27;;
24557;SDS011;12726;49.148;8.582;2023-02-15T12:10:55;26.25;;;14.40;;
24557;SDS011;12726;49.148;8.582;2023-02-15T12:16:50;22.40;;;14.60;;
24557;SDS011;12726;49.148;8.582;2023-02-15T12:19:38;24.85;;;15.15;;
24557;SDS011;12726;49.148;8.582;2023-02-15T12:22:27;25.27;;;15.02;;
24557;SDS011;12726;49.148;8.582;2023-02-15T12:25:20;23.23;;;14.18;;
24557;SDS011;12726;49.148;8.582;2023-02-15T12:28:15;25.90;;;13.73;;
24557;SDS011;12726;49.148;8.582;2023-02-15T12:31:09;25.23;;;15.20;;
24557;SDS011;12726;49.148;8.582;2023-02-15T12:34:08;25.13;;;14.77;;
24557;SDS011;12726;49.148;8.582;2023-02-15T12:36:57;26.13;;;15.25;;
24557;SDS011;12726;49.148;8.582;2023-02-15T12:39:51;23.92;;;14.05;;
24557;SDS011;12726;49.148;8.582;2023-02-15T12:42:42;24.77;;;14.25;;
24557;SDS011;12726;49.148;8.582;2023-02-15T12:45:30;21.85;;;13.57;;
24557;SDS011;12726;49.148;8.582;2023-02-15T12:48:18;24.40;;;14.57;;
24557;SDS011;12726;49.148;8.582;2023-02-15T12:51:06;24.25;;;15.95;;
24557;SDS011;12726;49.148;8.582;2023-02-15T12:53:53;20.45;;;13.50;;
24557;SDS011;12726;49.148;8.582;2023-02-15T12:56:40;23.38;;;13.85;;
24557;SDS011;12726;49.148;8.582;2023-02-15T12:59:25;20.35;;;12.38;;
24557;SDS011;12726;49.148;8.582;2023-02-15T13:02:12;22.35;;;13.57;;
24557;SDS011;12726;49.148;8.582;2023-02-15T13:05:05;22.05;;;12.93;;
24557;SDS011;12726;49.148;8.582;2023-02-15T13:08:02;21.50;;;12.73;;
24557;SDS011;12726;49.148;8.582;2023-02-15T13:10:59;20.00;;;14.02;;
24557;SDS011;12726;49.148;8.582;2023-02-15T13:13:50;22.83;;;13.70;;
24557;SDS011;12726;49.148;8.582;2023-02-15T13:16:38;24.52;;;14.50;;
24557;SDS011;12726;49.148;8.582;2023-02-15T13:19:26;25.50;;;15.65;;
24557;SDS011;12726;49.148;8.582;2023-02-15T13:22:18;26.17;;;15.85;;
24557;SDS011;12726;49.148;8.582;2023-02-15T13:25:09;28.50;;;15.70;;
24557;SDS011;12726;49.148;8.582;2023-02-15T13:28:00;28.73;;;16.27;;
24557;SDS011;12726;49.148;8.582;2023-02-15T13:30:48;31.88;;;18.00;;
24557;SDS011;12726;49.148;8.582;2023-02-15T13:33:36;33.90;;;19.25;;
24557;SDS011;12726;49.148;8.582;2023-02-15T13:36:23;29.60;;;17.45;;
24557;SDS011;12726;49.148;8.582;2023-02-15T13:39:16;31.40;;;17.67;;
24557;SDS011;12726;49.148;8.582;2023-02-15T13:42:14;31.88;;;18.20;;
24557;SDS011;12726;49.148;8.582;2023-02-15T13:45:09;28.77;;;16.88;;
24557;SDS011;12726;49.148;8.582;2023-02-15T13:48:18;32.67;;;18.85;;
24557;SDS011;12726;49.148;8.582;2023-02-15T13:51:10;36.38;;;20.05;;
24557;SDS011;12726;49.148;8.582;2023-02-15T13:54:21;30.90;;;18.13;;
24557;SDS011;12726;49.148;8.582;2023-02-15T13:57:23;35.63;;;20.80;;
24557;SDS011;12726;49.148;8.582;2023-02-15T14:00:22;31.65;;;18.63;;
24557;SDS011;12726;49.148;8.582;2023-02-15T14:03:19;32.83;;;19.13;;
24557;SDS011;12726;49.148;8.582;2023-02-15T14:06:34;29.30;;;18.40;;
24557;SDS011;12726;49.148;8.582;2023-02-15T14:09:36;30.73;;;18.48;;
24557;SDS011;12726;49.148;8.582;2023-02-15T14:12:36;30.40;;;19.08;;
24557;SDS011;12726;49.148;8.582;2023-02-15T14:15:38;34.88;;;21.08;;
24557;SDS011;12726;49.148;8.582;2023-02-15T14:18:32;33.45;;;19.77;;
24557;SDS011;12726;49.148;8.582;2023-02-15T14:24:16;34.30;;;19.75;;
24557;SDS011;12726;49.148;8.582;2023-02-15T14:27:13;36.63;;;21.88;;
24557;SDS011;12726;49.148;8.582;2023-02-15T14:30:12;39.23;;;21.83;;
24557;SDS011;12726;49.148;8.582;2023-02-15T14:33:02;36.65;;;21.15;;
24557;SDS011;12726;49.148;8.582;2023-02-15T14:35:53;34.08;;;20.92;;
24557;SDS011;12726;49.148;8.582;2023-02-15T14:38:44;33.58;;;19.45;;
24557;SDS011;12726;49.148;8.582;2023-02-15T14:41:37;28.60;;;17.88;;
24557;SDS011;12726;49.148;8.582;2023-02-15T14:44:27;34.47;;;21.33;;
24557;SDS011;12726;49.148;8.582;2023-02-15T14:47:22;32.88;;;21.15;;
24557;SDS011;12726;49.148;8.582;2023-02-15T14:53:38;34.35;;;21.90;;
24557;SDS011;12726;49.148;8.582;2023-02-15T14:56:25;36.20;;;22.60;;
24557;SDS011;12726;49.148;8.582;2023-02-15T14:59:15;36.08;;;22.20;;
24557;SDS011;12726;49.148;8.582;2023-02-15T15:02:04;38.08;;;22.70;;
24557;SDS011;12726;49.148;8.582;2023-02-15T15:05:00;32.78;;;20.33;;
24557;SDS011;12726;49.148;8.582;2023-02-15T15:07:51;34.22;;;21.67;;
24557;SDS011;12726;49.148;8.582;2023-02-15T15:10:42;35.22;;;22.05;;
24557;SDS011;12726;49.148;8.582;2023-02-15T15:13:37;40.90;;;23.27;;
24557;SDS011;12726;49.148;8.582;2023-02-15T15:16:46;38.75;;;22.30;;
24557;SDS011;12726;49.148;8.582;2023-02-15T15:22:43;37.30;;;22.02;;
24557;SDS011;12726;49.148;8.582;2023-02-15T15:25:41;38.70;;;20.83;;
24557;SDS011;12726;49.148;8.582;2023-02-15T15:31:43;35.03;;;20.65;;
24557;SDS011;12726;49.148;8.582;2023-02-15T15:38:10;35.22;;;20.00;;
24557;SDS011;12726;49.148;8.582;2023-02-15T15:41:17;31.65;;;19.73;;
24557;SDS011;12726;49.148;8.582;2023-02-15T15:44:20;32.88;;;19.08;;
24557;SDS011;12726;49.148;8.582;2023-02-15T15:47:34;34.05;;;18.95;;
24557;SDS011;12726;49.148;8.582;2023-02-15T15:50:32;32.85;;;18.58;;
24557;SDS011;12726;49.148;8.582;2023-02-15T15:53:19;31.83;;;18.02;;
24557;SDS011;12726;49.148;8.582;2023-02-15T15:56:08;38.30;;;21.70;;
24557;SDS011;12726;49.148;8.582;2023-02-15T15:58:59;32.92;;;19.42;;
24557;SDS011;12726;49.148;8.582;2023-02-15T16:01:47;35.80;;;20.52;;
24557;SDS011;12726;49.148;8.582;2023-02-15T16:04:33;35.22;;;19.48;;
24557;SDS011;12726;49.148;8.582;2023-02-15T16:07:22;30.58;;;18.35;;
24557;SDS011;12726;49.148;8.582;2023-02-15T16:10:20;29.55;;;17.50;;
24557;SDS011;12726;49.148;8.582;2023-02-15T16:13:06;32.13;;;17.67;;
24557;SDS011;12726;49.148;8.582;2023-02-15T16:15:53;29.90;;;18.05;;
24557;SDS011;12726;49.148;8.582;2023-02-15T16:18:40;27.00;;;16.35;;
24557;SDS011;12726;49.148;8.582;2023-02-15T16:21:28;25.02;;;15.63;;
24557;SDS011;12726;49.148;8.582;2023-02-15T16:24:19;26.67;;;15.15;;
24557;SDS011;12726;49.148;8.582;2023-02-15T16:27:20;28.73;;;16.92;;
24557;SDS011;12726;49.148;8.582;2023-02-15T16:30:24;28.00;;;16.48;;
24557;SDS011;12726;49.148;8.582;2023-02-15T16:33:14;24.65;;;15.00;;
24557;SDS011;12726;49.148;8.582;2023-02-15T16:36:00;26.85;;;16.02;;
24557;SDS011;12726;49.148;8.582;2023-02-15T16:42:04;25.55;;;15.63;;
24557;SDS011;12726;49.148;8.582;2023-02-15T16:44:51;28.50;;;16.63;;
24557;SDS011;12726;49.148;8.582;2023-02-15T16:47:41;29.00;;;16.52;;
24557;SDS011;12726;49.148;8.582;2023-02-15T16:50:32;25.70;;;16.63;;
24557;SDS011;12726;49.148;8.582;2023-02-15T16:53:20;35.28;;;20.85;;
24557;SDS011;12726;49.148;8.582;2023-02-15T16:56:08;33.80;;;19.02;;
24557;SDS011;12726;49.148;8.582;2023-02-15T16:58:54;27.98;;;17.80;;
24557;SDS011;12726;49.148;8.582;2023-02-15T17:01:41;32.90;;;18.15;;
24557;SDS011;12726;49.148;8.582;2023-02-15T17:04:30;30.13;;;18.90;;
24557;SDS011;12726;49.148;8.582;2023-02-15T17:07:19;33.05;;;19.58;;
24557;SDS011;12726;49.148;8.582;2023-02-15T17:10:15;30.13;;;18.55;;
24557;SDS011;12726;49.148;8.582;2023-02-15T17:13:12;32.53;;;20.42;;
24557;SDS011;12726;49.148;8.582;2023-02-15T17:19:18;30.98;;;19.10;;